Waubun, MN (56589)

5:11 PM CST on February 07, 2016 (GMT -0600)
Maplelag Resort | | Change Station
CLOSE
Current Station
Personal Weather Station
Location: Callaway, MN
Elevation: 1476 ft
Nearby Weather Stations
Active Advisory: Winter Weather Advisory

Elev 1476 ft 47.01 °N, 95.78 °W | Updated 3 seconds ago

Snow
Snow
12.9 °F
Feels Like 13 °F
N
0.0
Wind Variable Wind from WNW
Gusts 0.0 mph

Today
High -- | Low -- °F
--% Chance of Precip.
Yesterday
High -- | Low -- °F
Precip. -- in
Pressure 29.81 in
Visibility 0.8 miles
Clouds Overcast 500 ft
Windchill 13 °F
Dew Point 5 °F
Humidity 71%
Rainfall 0.02 in
Snow Depth Not available.
7:41 AM 5:34 PM
Waning Crescent, 1% visible
METAR KDTL 072255Z AUTO 34020G33KT 3/4SM -SN OVC005 M09/M10 A2981 RMK AO2
Pressure 29.81 in
Visibility 0.8 miles
Clouds Overcast 500 ft
Windchill 13 °F
Dew Point 5 °F
Humidity 71%
Rainfall 0.02 in
Snow Depth Not available.
7:41 AM 5:34 PM
Waning Crescent, 1% visible
METAR KDTL 072255Z AUTO 34020G33KT 3/4SM -SN OVC005 M09/M10 A2981 RMK AO2

10-Day Weather Forecast

Almanac

Astronomy

Feb. 07, 2016 Rise Set
Actual Time
Civil Twilight
Nautical Twilight
Astronomical Twilight
Moon
Length of Visible Light
Length of Day
Tomorrow will be .
, % of the Moon is Illuminated

Today's Extremes

State Highs State Lows

Community

WunderPhotos

Upload Photos

1,891,325 photos uploaded!

WunderBlog® & News

Nearby

Air Quality

  Air Quality AQ Index Pollutant
Not available.

Snow Depth

Station Depth Elevation

Earthquake Activity

City Distance Mag. Time & Date
Minimum magnitude displayed is 2.5.

Coastal Water Temperatures

Place Temperature

Stations

Nearby Weather Stations

Station Location Temp. Windchill Dew Point Humidity Wind Precip. Elev Updated Type
                   

Watches & Warnings

Winter Weather Advisory
Issued: 3:46 PM CST Feb. 7, 2016 – National Weather Service

... Winter Weather Advisory in effect until 6 am CST Monday...
... Winter Storm Warning is cancelled...

The National Weather Service in Grand Forks has issued a Winter
Weather Advisory for hazardous travel... which is in effect until
6 am CST Monday. The Winter Storm Warning has been cancelled.

* Timing... expect snow to continue into tonight.

* Precipitation rates... the heaviest snowfall rates will occur
between now and midnight.

* Snow accumulations... up to 2 inches.

* Winds / visibilities... winds gusting as high as 45 mph will
cause areas reduced visibility to a half miles or less.

* Impacts... plan on slippery Road conditions.

* Winds... northwest 20 to 30 mph with gusts up to 45 mph.

Precautionary/preparedness actions...

A Winter Weather Advisory means periods of snow will cause
primarily travel difficulties. Be prepared limited
visibilities... and use caution while driving. The latest Road
conditions for the state you are calling from can be obtained by
calling 5 1 1.